Bellevue, Nebraska
Current Conditions -  °F | °C
As of 9:58 AM on Wednesday 28 Jan 2015 (Local Time) from KOFF Reporting Station
Clear Clear  
Wind Chill: 31°   Ceiling: Unl
Heat Index: 39°   Visibility: 10mi
Dew Point: 31°   Wind: 13mph
Humidity: 74%   Direction: 120°ESE
Pressure: 29.84"   Gusts: NA
Location:  41.14°N, 95.89°W
Report Text: KOFF 281558Z AUTO 12011KT 10SM CLR 04/00 A2984 RMK AO2 SLP116 T00391004
Loading
Personal Weather Stations






























Interactive Weather Map New forecast layout! Learn more

10-Day Weather Forecast

Advertisements
Track Severe Weather on mobile